createdAt,value
2019-05-10T00:00:11.867Z,74.53
2019-05-10T00:02:58.944Z,76.34
2019-05-10T00:05:45.600Z,75.93
2019-05-10T00:08:32.761Z,75.84
2019-05-10T00:11:05.097Z,73.91
2019-05-10T00:13:40.974Z,75.09
2019-05-10T00:16:09.215Z,75.80
2019-05-10T00:18:37.495Z,72.83
2019-05-10T00:21:05.829Z,73.50
2019-05-10T00:23:34.196Z,73.74
2019-05-10T00:26:02.534Z,71.60
2019-05-10T00:28:30.758Z,73.61
2019-05-10T00:30:59.487Z,74.83
2019-05-10T00:33:28.769Z,72.92
2019-05-10T00:35:57.007Z,72.39
2019-05-10T00:38:26.317Z,72.06
2019-05-10T00:40:54.618Z,73.88
2019-05-10T00:43:22.887Z,73.69
2019-05-10T00:45:51.168Z,70.85
2019-05-10T00:48:19.436Z,71.35
2019-05-10T00:50:48.737Z,71.33
2019-05-10T00:53:17.058Z,68.42
2019-05-10T00:55:45.392Z,68.63
2019-05-10T00:58:13.770Z,70.39
2019-05-10T01:00:42.069Z,70.05
2019-05-10T01:03:10.331Z,69.19
2019-05-10T01:05:38.596Z,71.62
2019-05-10T01:08:06.907Z,71.46
2019-05-10T01:10:35.172Z,69.81
2019-05-10T01:13:03.434Z,73.28
2019-05-10T01:15:31.796Z,72.78
2019-05-10T01:18:00.047Z,71.88
2019-05-10T01:20:28.329Z,71.16
2019-05-10T01:22:56.591Z,71.82
2019-05-10T01:25:34.497Z,72.39
2019-05-10T01:27:54.973Z,72.31
2019-05-10T01:30:23.302Z,74.95
2019-05-10T01:32:51.652Z,73.48
2019-05-10T01:35:21.064Z,71.64
2019-05-10T01:37:49.352Z,69.73
2019-05-10T01:40:17.970Z,70.87
2019-05-10T01:42:46.271Z,70.84
2019-05-10T01:45:14.639Z,73.54
2019-05-10T01:47:43.818Z,72.67
2019-05-10T01:50:12.195Z,70.95
2019-05-10T01:52:42.431Z,71.54
2019-05-10T01:55:10.783Z,70.81
2019-05-10T01:57:39.042Z,70.68
2019-05-10T02:00:08.841Z,70.95
2019-05-10T02:02:37.251Z,69.64
2019-05-10T02:05:06.194Z,72.54
2019-05-10T02:07:34.569Z,71.69
2019-05-10T02:10:04.069Z,72.87
2019-05-10T02:12:32.374Z,69.57
2019-05-10T02:15:00.676Z,72.03
2019-05-10T02:17:28.928Z,70.81
2019-05-10T02:19:57.244Z,70.19
2019-05-10T02:22:25.452Z,68.03
2019-05-10T02:24:53.706Z,70.29
2019-05-10T02:27:22.033Z,67.72
2019-05-10T02:29:50.308Z,69.88
2019-05-10T02:32:19.582Z,71.58
2019-05-10T02:34:47.862Z,67.86
2019-05-10T02:37:16.190Z,68.65
2019-05-10T02:39:44.425Z,71.54
2019-05-10T02:42:13.714Z,72.07
2019-05-10T02:44:41.994Z,70.24
2019-05-10T02:47:10.252Z,73.98
2019-05-10T02:49:38.571Z,73.15
2019-05-10T02:52:06.837Z,74.08
2019-05-10T02:54:35.093Z,72.72
2019-05-10T02:57:03.928Z,71.52
2019-05-10T02:59:33.532Z,72.91
2019-05-10T03:02:04.813Z,72.39
2019-05-10T03:04:35.585Z,73.19
2019-05-10T03:07:05.190Z,74.79
2019-05-10T03:09:35.260Z,73.30
2019-05-10T03:12:24.621Z,73.99
2019-05-10T03:14:54.802Z,74.29
2019-05-10T03:17:24.734Z,75.62
2019-05-10T03:19:54.234Z,75.90
2019-05-10T03:22:43.674Z,74.34
2019-05-10T03:25:14.038Z,73.83
2019-05-10T03:27:42.382Z,74.16
2019-05-10T03:30:11.220Z,73.90
2019-05-10T03:32:39.532Z,75.28
2019-05-10T03:35:08.193Z,73.99
2019-05-10T03:37:36.551Z,71.36
2019-05-10T03:40:08.656Z,73.52
2019-05-10T03:42:37.060Z,73.87
2019-05-10T03:45:08.287Z,73.86
2019-05-10T03:47:36.648Z,73.47
2019-05-10T03:50:08.524Z,72.90
2019-05-10T03:52:37.292Z,71.01
2019-05-10T03:55:06.500Z,71.04
2019-05-10T03:57:34.906Z,72.17
2019-05-10T04:00:04.846Z,72.84
2019-05-10T04:02:33.083Z,72.24
2019-05-10T04:05:01.354Z,71.92
2019-05-10T04:07:29.640Z,71.22
2019-05-10T04:09:57.913Z,72.61
2019-05-10T04:12:26.257Z,72.84
2019-05-10T04:14:54.634Z,71.34
2019-05-10T04:17:22.899Z,71.34
2019-05-10T04:19:51.213Z,70.85
2019-05-10T04:22:19.461Z,71.46
2019-05-10T04:24:47.738Z,72.64
2019-05-10T04:27:30.589Z,73.29
2019-05-10T04:29:46.084Z,73.31
2019-05-10T04:32:14.409Z,72.37
2019-05-10T04:34:42.685Z,72.62
2019-05-10T04:37:10.955Z,72.96
2019-05-10T04:39:39.240Z,72.35
2019-05-10T04:42:07.516Z,71.91
2019-05-10T04:44:35.814Z,72.27
2019-05-10T04:47:04.180Z,71.42
2019-05-10T04:49:32.554Z,72.04
2019-05-10T04:52:30.501Z,70.92
2019-05-10T04:55:06.586Z,70.62
2019-05-10T04:57:49.939Z,69.95
2019-05-10T05:00:08.487Z,69.37
2019-05-10T05:02:36.759Z,70.47
2019-05-10T05:05:06.285Z,70.10
2019-05-10T05:07:34.620Z,71.02
2019-05-10T05:10:03.665Z,70.85
2019-05-10T05:12:35.073Z,70.14
2019-05-10T05:15:05.287Z,71.78
2019-05-10T05:17:33.604Z,68.70
2019-05-10T05:20:02.059Z,70.29
2019-05-10T05:22:30.555Z,69.39
2019-05-10T05:25:01.271Z,70.23
2019-05-10T05:27:28.988Z,72.37
2019-05-10T05:29:57.249Z,72.30
2019-05-10T05:32:25.527Z,69.99
2019-05-10T05:34:53.799Z,68.18
2019-05-10T05:37:22.195Z,69.55
2019-05-10T05:39:50.501Z,69.61
2019-05-10T05:42:22.375Z,66.96
2019-05-10T05:44:48.908Z,67.61
2019-05-10T05:47:26.745Z,70.15
2019-05-10T05:50:01.281Z,69.07
2019-05-10T05:52:29.740Z,69.29
2019-05-10T05:54:59.308Z,69.24
2019-05-10T05:57:29.582Z,68.86
2019-05-10T06:00:03.961Z,68.57
2019-05-10T06:02:28.166Z,69.30
2019-05-10T06:04:56.432Z,67.65
2019-05-10T06:07:24.825Z,70.44
2019-05-10T06:09:53.063Z,68.78
2019-05-10T06:12:21.352Z,67.44
2019-05-10T06:14:52.212Z,68.69
2019-05-10T06:17:23.714Z,68.02
2019-05-10T06:19:49.801Z,68.12
2019-05-10T06:22:18.074Z,67.96
2019-05-10T06:24:51.813Z,67.41
2019-05-10T06:27:16.329Z,69.36
2019-05-10T06:29:44.744Z,66.23
2019-05-10T06:32:14.441Z,67.75
2019-05-10T06:34:42.732Z,68.32
2019-05-10T06:37:10.994Z,68.36
2019-05-10T06:39:39.283Z,66.30
2019-05-10T06:42:07.596Z,65.62
2019-05-10T06:44:35.880Z,65.51
2019-05-10T06:47:08.314Z,67.36
2019-05-10T06:49:34.301Z,65.56
2019-05-10T06:52:02.567Z,64.36
2019-05-10T06:54:30.859Z,63.83
2019-05-10T06:56:59.162Z,64.29
2019-05-10T06:59:27.449Z,61.78
2019-05-10T07:01:55.814Z,62.98
2019-05-10T07:04:24.125Z,62.33
2019-05-10T07:06:52.380Z,63.00
2019-05-10T07:09:20.677Z,63.18
2019-05-10T07:11:48.961Z,66.00
2019-05-10T07:14:17.235Z,64.20
2019-05-10T07:16:45.488Z,62.63
2019-05-10T07:19:13.775Z,61.35
2019-05-10T07:21:44.866Z,61.72
2019-05-10T07:24:12.262Z,58.42
2019-05-10T07:26:40.539Z,60.86
2019-05-10T07:29:08.994Z,61.73
2019-05-10T07:31:37.341Z,59.12
2019-05-10T07:34:09.624Z,60.45
2019-05-10T07:36:35.930Z,59.63
2019-05-10T07:39:08.400Z,62.04
2019-05-10T07:41:36.513Z,59.43
2019-05-10T07:44:08.211Z,58.58
2019-05-10T07:46:39.882Z,57.24
2019-05-10T07:49:04.856Z,57.28
2019-05-10T07:51:33.233Z,57.80
2019-05-10T07:54:04.448Z,57.87
2019-05-10T07:56:31.519Z,55.46
2019-05-10T07:59:00.669Z,58.22
2019-05-10T08:01:32.718Z,56.75
2019-05-10T08:03:59.330Z,58.09
2019-05-10T08:06:33.964Z,57.65
2019-05-10T08:09:01.907Z,57.11
2019-05-10T08:11:28.537Z,57.03
2019-05-10T08:14:05.335Z,55.22
2019-05-10T08:16:29.045Z,55.09
2019-05-10T08:19:01.067Z,54.27
2019-05-10T08:21:27.123Z,56.08
2019-05-10T08:23:59.046Z,54.22
2019-05-10T08:26:25.554Z,53.71
2019-05-10T08:28:54.868Z,52.78
2019-05-10T08:31:26.252Z,53.54
2019-05-10T08:33:58.535Z,52.20
2019-05-10T08:36:23.335Z,49.99
2019-05-10T08:39:03.439Z,50.66
2019-05-10T08:41:22.383Z,51.16
2019-05-10T08:43:52.535Z,50.19
2019-05-10T08:46:28.603Z,49.91
2019-05-10T08:48:53.764Z,50.20
2019-05-10T08:51:22.768Z,50.85
2019-05-10T08:53:53.511Z,49.96
2019-05-10T08:56:23.991Z,50.29
2019-05-10T08:58:53.595Z,48.75
2019-05-10T09:01:29.545Z,48.04
2019-05-10T09:03:55.208Z,47.69
2019-05-10T09:06:22.120Z,46.92
2019-05-10T09:08:52.954Z,50.16
2019-05-10T09:11:22.973Z,48.05
2019-05-10T09:13:53.186Z,49.11
2019-05-10T09:16:23.524Z,48.13
2019-05-10T09:18:53.666Z,47.94
2019-05-10T09:21:23.041Z,46.57
2019-05-10T09:24:01.354Z,45.55
2019-05-10T09:26:46.831Z,45.28
2019-05-10T09:29:13.332Z,45.93
2019-05-10T09:31:48.623Z,44.54
2019-05-10T09:34:12.224Z,45.62
2019-05-10T09:36:44.829Z,46.00
2019-05-10T09:39:17.529Z,42.95
2019-05-10T09:41:42.147Z,43.75
2019-05-10T09:44:12.890Z,43.37
2019-05-10T09:46:42.211Z,42.66
2019-05-10T09:49:15.775Z,41.62
2019-05-10T09:51:42.306Z,42.38
2019-05-10T09:54:10.824Z,41.65
2019-05-10T09:56:44.402Z,41.85
2019-05-10T09:59:10.008Z,42.62
2019-05-10T10:01:38.269Z,42.01
2019-05-10T10:04:06.582Z,42.48
2019-05-10T10:06:36.939Z,42.46
2019-05-10T10:09:10.916Z,41.45
2019-05-10T10:11:38.025Z,41.75
2019-05-10T10:14:07.579Z,41.99
2019-05-10T10:16:36.376Z,41.07
2019-05-10T10:19:07.023Z,40.83
2019-05-10T10:21:38.572Z,40.50
2019-05-10T10:24:14.521Z,39.32
2019-05-10T10:26:37.459Z,41.28
2019-05-10T10:29:07.366Z,40.73
2019-05-10T10:31:48.300Z,39.42
2019-05-10T10:34:07.620Z,39.45
2019-05-10T10:36:40.105Z,38.81
2019-05-10T10:39:07.493Z,37.52
2019-05-10T10:41:36.739Z,39.37
2019-05-10T10:44:05.065Z,38.75
2019-05-10T10:46:34.753Z,38.75
2019-05-10T10:49:05.341Z,38.25
2019-05-10T10:51:34.672Z,38.67
2019-05-10T10:54:03.100Z,38.47
2019-05-10T10:56:31.379Z,39.05
2019-05-10T10:58:59.654Z,38.99
2019-05-10T11:01:37.982Z,38.46
2019-05-10T11:04:03.479Z,37.86
2019-05-10T11:06:27.986Z,38.61
2019-05-10T11:08:56.248Z,38.41
2019-05-10T11:11:30.706Z,37.66
2019-05-10T11:14:04.592Z,35.98
2019-05-10T11:16:27.776Z,37.11
2019-05-10T11:18:56.080Z,36.91
2019-05-10T11:21:28.652Z,35.71
2019-05-10T11:23:54.584Z,35.66
2019-05-10T11:26:26.878Z,34.87
2019-05-10T11:28:53.002Z,35.84
2019-05-10T11:31:21.480Z,34.58
2019-05-10T11:33:56.122Z,36.02
2019-05-10T11:36:21.148Z,36.97
2019-05-10T11:38:56.543Z,36.01
2019-05-10T11:41:23.798Z,36.10
2019-05-10T11:43:49.664Z,36.57
2019-05-10T11:46:20.833Z,35.94
2019-05-10T11:48:48.110Z,35.68
2019-05-10T11:51:21.095Z,35.38
2019-05-10T11:53:59.535Z,35.16
2019-05-10T11:56:27.536Z,33.77
2019-05-10T11:59:02.162Z,32.01
2019-05-10T12:01:28.478Z,32.96
2019-05-10T12:03:56.716Z,31.84
2019-05-10T12:06:24.966Z,32.42
2019-05-10T12:09:00.866Z,31.72
2019-05-10T12:11:32.973Z,29.93
2019-05-10T12:13:57.375Z,31.54
2019-05-10T12:16:24.222Z,29.70
2019-05-10T12:21:22.485Z,29.71
2019-05-10T12:23:55.968Z,28.92
2019-05-10T12:26:50.395Z,29.44
2019-05-10T12:28:51.757Z,29.22
2019-05-10T12:31:21.085Z,30.00
2019-05-10T12:33:50.715Z,31.81
2019-05-10T12:36:25.612Z,32.04
2019-05-10T12:38:50.273Z,31.31
2019-05-10T12:41:18.559Z,31.87
2019-05-10T12:43:48.592Z,30.49
2019-05-10T12:46:16.944Z,28.96
2019-05-10T12:48:45.217Z,28.31
2019-05-10T12:51:16.172Z,28.25
2019-05-10T12:53:47.649Z,27.61
2019-05-10T12:56:13.751Z,26.74
2019-05-10T12:58:42.024Z,27.00
2019-05-10T13:01:10.288Z,26.97
2019-05-10T13:03:38.609Z,27.37
2019-05-10T13:06:08.859Z,28.17
2019-05-10T13:08:39.516Z,27.94
2019-05-10T13:11:07.928Z,26.73
2019-05-10T13:13:36.225Z,25.58
2019-05-10T13:16:09.859Z,25.55
2019-05-10T13:18:49.624Z,27.61
2019-05-10T13:21:07.902Z,25.68
2019-05-10T13:23:36.555Z,24.86
2019-05-10T13:26:05.929Z,24.16
2019-05-10T13:28:35.119Z,24.28
2019-05-10T13:31:05.563Z,24.72
2019-05-10T13:33:40.986Z,24.64
2019-05-10T13:36:03.583Z,25.50
2019-05-10T13:38:36.954Z,25.03
2019-05-10T13:41:01.997Z,24.47
2019-05-10T13:43:30.298Z,24.49
2019-05-10T13:45:58.592Z,27.67
2019-05-10T13:48:27.835Z,27.05
2019-05-10T13:50:57.128Z,28.96
2019-05-10T13:53:25.429Z,26.73
2019-05-10T13:55:53.691Z,26.59
2019-05-10T13:58:21.988Z,24.51
2019-05-10T14:00:50.288Z,25.10
2019-05-10T14:03:18.547Z,25.88
2019-05-10T14:05:46.898Z,26.48
2019-05-10T14:08:15.373Z,26.17
2019-05-10T14:10:43.644Z,26.88
2019-05-10T14:13:12.007Z,28.99
2019-05-10T14:15:42.404Z,28.68
2019-05-10T14:18:10.679Z,29.45
2019-05-10T14:20:38.983Z,28.71
2019-05-10T14:23:07.395Z,28.42
2019-05-10T14:25:37.143Z,29.12
2019-05-10T14:28:09.723Z,28.05
2019-05-10T14:30:35.725Z,28.54
2019-05-10T14:33:08.790Z,26.57
2019-05-10T14:35:34.032Z,26.14
2019-05-10T14:38:08.409Z,26.86
2019-05-10T14:40:32.363Z,25.16
2019-05-10T14:43:00.686Z,25.81
2019-05-10T14:45:28.944Z,26.60
2019-05-10T14:47:57.212Z,26.48
2019-05-10T14:50:28.271Z,26.93
2019-05-10T14:52:56.593Z,28.81
2019-05-10T14:55:28.091Z,28.35
2019-05-10T14:57:54.815Z,28.19
2019-05-10T15:00:23.111Z,28.60
2019-05-10T15:02:51.364Z,28.85
2019-05-10T15:05:19.723Z,28.89
2019-05-10T15:07:51.205Z,29.98
2019-05-10T15:10:19.092Z,29.74
2019-05-10T15:12:47.363Z,29.46
2019-05-10T15:15:15.697Z,30.25
2019-05-10T15:17:44.058Z,29.34
2019-05-10T15:20:12.404Z,29.82
2019-05-10T15:22:40.663Z,29.70
2019-05-10T15:25:17.654Z,30.44
2019-05-10T15:27:47.084Z,29.71
2019-05-10T15:30:18.709Z,29.90
2019-05-10T15:32:47.039Z,29.47
2019-05-10T15:35:15.407Z,29.10
2019-05-10T15:37:46.289Z,30.36
2019-05-10T15:40:14.862Z,29.74
2019-05-10T15:42:43.200Z,30.07
2019-05-10T15:45:12.653Z,30.12
2019-05-10T15:47:50.516Z,29.97
2019-05-10T15:50:11.979Z,28.44
2019-05-10T15:52:46.463Z,29.14
2019-05-10T15:55:10.337Z,28.98
2019-05-10T15:57:41.786Z,27.22
2019-05-10T16:00:38.164Z,25.82
2019-05-10T16:02:59.390Z,24.88
2019-05-10T16:05:42.494Z,27.77
2019-05-10T16:08:00.824Z,29.11
2019-05-10T16:10:38.709Z,29.76
2019-05-10T16:12:59.104Z,30.41
2019-05-10T16:15:28.292Z,29.04
2019-05-10T16:17:59.929Z,29.49
2019-05-10T16:20:26.551Z,29.78
2019-05-10T16:22:54.812Z,30.02
2019-05-10T16:25:23.068Z,30.24
2019-05-10T16:27:51.340Z,30.46
2019-05-10T16:30:20.692Z,29.59
2019-05-10T16:32:48.972Z,29.96
2019-05-10T16:35:17.307Z,29.41
2019-05-10T16:37:45.673Z,29.31
2019-05-10T16:40:14.193Z,28.99
2019-05-10T16:42:42.449Z,29.67
2019-05-10T16:45:11.255Z,29.75
2019-05-10T16:47:39.566Z,30.66
2019-05-10T16:50:08.409Z,30.79
2019-05-10T16:52:36.775Z,29.96
2019-05-10T16:55:09.554Z,29.87
2019-05-10T16:57:39.436Z,28.91
2019-05-10T17:00:10.528Z,29.01
2019-05-10T17:02:42.259Z,29.52
2019-05-10T17:05:09.527Z,29.64
2019-05-10T17:07:39.121Z,29.30
2019-05-10T17:10:08.070Z,29.44
2019-05-10T17:12:36.416Z,29.81
2019-05-10T17:15:05.875Z,29.65
2019-05-10T17:17:37.314Z,29.93
2019-05-10T17:20:13.722Z,29.07
2019-05-10T17:22:39.016Z,28.89
2019-05-10T17:25:09.089Z,30.42
2019-05-10T17:27:39.468Z,30.42
2019-05-10T17:30:08.400Z,30.46
2019-05-10T17:32:36.678Z,30.63
2019-05-10T17:35:07.556Z,30.20
2019-05-10T17:37:37.457Z,29.44
2019-05-10T17:40:10.623Z,28.70
2019-05-10T17:42:41.310Z,29.43
2019-05-10T17:45:10.110Z,28.51
2019-05-10T17:47:38.367Z,29.25
2019-05-10T17:50:09.043Z,29.79
2019-05-10T17:52:37.409Z,30.43
2019-05-10T17:55:11.048Z,29.79
2019-05-10T17:57:37.171Z,29.95
2019-05-10T18:00:09.096Z,29.02
2019-05-10T18:02:37.362Z,28.75
2019-05-10T18:05:08.118Z,29.32
2019-05-10T18:07:36.212Z,34.44
2019-05-10T18:10:05.332Z,35.56
2019-05-10T18:12:33.664Z,37.47
2019-05-10T18:15:05.049Z,37.38
2019-05-10T18:17:33.115Z,36.55
2019-05-10T18:20:02.213Z,36.28
2019-05-10T18:22:42.122Z,36.00
2019-05-10T18:25:20.362Z,37.08
2019-05-10T18:30:38.543Z,37.05
2019-05-10T18:33:12.342Z,36.27
2019-05-10T18:35:36.901Z,36.02
2019-05-10T18:38:05.168Z,36.74
2019-05-10T18:40:33.564Z,36.70
2019-05-10T18:43:05.726Z,38.44
2019-05-10T18:45:33.841Z,37.06
2019-05-10T18:48:02.122Z,38.38
2019-05-10T18:50:30.386Z,38.58
2019-05-10T18:53:00.647Z,37.85
2019-05-10T18:55:28.929Z,39.66
2019-05-10T18:57:57.203Z,37.52
2019-05-10T19:00:25.559Z,38.97
2019-05-10T19:02:55.221Z,37.81
2019-05-10T19:05:25.039Z,37.26
2019-05-10T19:08:03.176Z,38.76
2019-05-10T19:10:23.781Z,40.54
2019-05-10T19:12:59.495Z,41.27
2019-05-10T19:15:22.046Z,41.93
2019-05-10T19:17:50.337Z,40.79
2019-05-10T19:20:20.416Z,43.31
2019-05-10T19:22:48.679Z,40.64
2019-05-10T19:25:17.039Z,41.49
2019-05-10T19:27:50.618Z,41.58
2019-05-10T19:30:19.987Z,41.51
2019-05-10T19:32:45.290Z,43.21
2019-05-10T19:35:14.544Z,41.24
2019-05-10T19:37:42.817Z,43.38
2019-05-10T19:40:13.146Z,42.18
2019-05-10T19:42:42.955Z,42.74
2019-05-10T19:45:43.279Z,42.36
2019-05-10T19:47:41.600Z,42.77
2019-05-10T19:50:10.296Z,43.39
2019-05-10T19:52:38.593Z,43.86
2019-05-10T19:55:06.971Z,42.11
2019-05-10T19:57:36.349Z,42.49
2019-05-10T20:00:06.155Z,42.90
2019-05-10T20:02:34.537Z,44.44
2019-05-10T20:05:03.972Z,44.36
2019-05-10T20:07:45.469Z,42.67
2019-05-10T20:10:02.591Z,42.01
2019-05-10T20:12:31.978Z,41.99
2019-05-10T20:15:00.256Z,42.48
2019-05-10T20:17:28.697Z,41.95
2019-05-10T20:19:57.187Z,42.63
2019-05-10T20:22:25.480Z,40.75
2019-05-10T20:24:54.770Z,40.24
2019-05-10T20:27:23.074Z,41.42
2019-05-10T20:29:51.353Z,40.94
2019-05-10T20:32:19.600Z,40.19
2019-05-10T20:34:47.906Z,41.59
2019-05-10T20:37:16.169Z,40.18
2019-05-10T20:39:44.455Z,40.20
2019-05-10T20:42:12.732Z,39.40
2019-05-10T20:44:41.011Z,39.30
2019-05-10T20:47:10.314Z,39.24
2019-05-10T20:49:38.844Z,38.79
2019-05-10T20:52:07.160Z,40.04
2019-05-10T20:54:35.578Z,40.16
2019-05-10T20:57:04.831Z,39.41
2019-05-10T20:59:33.098Z,39.91
2019-05-10T21:02:01.419Z,39.49
2019-05-10T21:04:29.699Z,39.74
2019-05-10T21:06:57.968Z,39.94
2019-05-10T21:09:26.225Z,42.06
2019-05-10T21:11:54.487Z,42.75
2019-05-10T21:14:22.766Z,41.02
2019-05-10T21:16:51.041Z,41.95
2019-05-10T21:19:19.939Z,41.19
2019-05-10T21:21:48.489Z,41.37
2019-05-10T21:24:16.764Z,40.13
2019-05-10T21:26:45.080Z,39.94
2019-05-10T21:29:13.342Z,39.19
2019-05-10T21:31:41.634Z,38.69
2019-05-10T21:34:10.390Z,39.28
2019-05-10T21:36:38.860Z,39.50
2019-05-10T21:39:07.474Z,40.39
2019-05-10T21:41:35.751Z,39.91
2019-05-10T21:44:04.034Z,40.20
2019-05-10T21:46:32.282Z,40.18
2019-05-10T21:49:00.582Z,39.39
2019-05-10T21:51:28.851Z,38.71
2019-05-10T21:53:58.871Z,39.32
2019-05-10T21:56:27.117Z,40.82
2019-05-10T21:58:55.456Z,40.03
2019-05-10T22:01:23.807Z,40.09
2019-05-10T22:03:52.076Z,40.14
2019-05-10T22:06:20.355Z,40.72
2019-05-10T22:08:49.827Z,41.27
2019-05-10T22:11:18.361Z,41.04
2019-05-10T22:13:46.632Z,41.12
2019-05-10T22:16:14.904Z,41.54
2019-05-10T22:18:43.194Z,41.22
2019-05-10T22:21:11.429Z,42.11
2019-05-10T22:23:39.809Z,42.47
2019-05-10T22:26:08.052Z,42.48
2019-05-10T22:28:36.352Z,43.97
2019-05-10T22:31:04.707Z,44.13
2019-05-10T22:33:32.970Z,44.81
2019-05-10T22:36:01.240Z,45.22
2019-05-10T22:38:29.564Z,44.18
2019-05-10T22:40:57.848Z,45.33
2019-05-10T22:43:26.110Z,45.94
2019-05-10T22:45:54.361Z,47.16
2019-05-10T22:48:22.624Z,46.13
2019-05-10T22:50:50.906Z,49.54
2019-05-10T22:53:19.170Z,47.87
2019-05-10T22:55:47.459Z,50.44
2019-05-10T22:58:15.698Z,48.20
2019-05-10T23:00:44.224Z,49.43
2019-05-10T23:03:12.483Z,48.61
2019-05-10T23:05:40.764Z,47.13
2019-05-10T23:08:09.037Z,48.80
2019-05-10T23:10:37.305Z,49.47
2019-05-10T23:13:05.576Z,47.52
2019-05-10T23:15:33.829Z,47.81
2019-05-10T23:18:02.089Z,47.65
2019-05-10T23:20:30.351Z,49.37
2019-05-10T23:22:58.742Z,49.17
2019-05-10T23:25:26.994Z,50.18
2019-05-10T23:27:55.264Z,50.31
2019-05-10T23:30:23.531Z,51.76
2019-05-10T23:32:51.792Z,48.14
2019-05-10T23:35:20.055Z,48.64
2019-05-10T23:37:48.325Z,49.20
2019-05-10T23:40:24.156Z,49.25
2019-05-10T23:42:58.220Z,48.31
2019-05-10T23:45:26.778Z,48.68
2019-05-10T23:47:55.035Z,49.08
2019-05-10T23:50:23.299Z,48.16
2019-05-10T23:52:51.576Z,50.20
2019-05-10T23:55:19.843Z,49.85
2019-05-10T23:57:48.309Z,49.20
